createdAt,value
2022-08-18T00:02:15.746Z,20.67
2022-08-18T00:04:48.885Z,21.20
2022-08-18T00:07:22.198Z,21.73
2022-08-18T00:09:49.903Z,23.60
2022-08-18T00:12:19.314Z,22.13
2022-08-18T00:14:49.104Z,22.00
2022-08-18T00:17:17.454Z,22.93
2022-08-18T00:19:48.172Z,24.23
2022-08-18T00:22:19.371Z,23.53
2022-08-18T00:24:53.407Z,24.93
2022-08-18T00:27:28.176Z,23.90
2022-08-18T00:29:59.614Z,24.00
2022-08-18T00:32:30.126Z,23.43
2022-08-18T00:34:58.103Z,24.13
2022-08-18T00:37:26.176Z,24.63
2022-08-18T00:39:54.590Z,23.80
2022-08-18T00:42:28.183Z,24.43
2022-08-18T00:45:02.027Z,25.40
2022-08-18T00:47:41.873Z,26.87
2022-08-18T00:50:15.485Z,27.73
2022-08-18T00:52:46.588Z,26.93
2022-08-18T00:55:14.227Z,27.90
2022-08-18T00:57:42.820Z,29.63
2022-08-18T01:00:14.406Z,28.40
2022-08-18T01:02:45.190Z,28.07
2022-08-18T01:05:17.767Z,27.27
2022-08-18T01:07:47.335Z,29.73
2022-08-18T01:10:17.152Z,29.40
2022-08-18T01:12:46.970Z,27.87
2022-08-18T01:15:29.196Z,28.70
2022-08-18T01:18:16.597Z,28.67
2022-08-18T01:21:15.763Z,29.17
2022-08-18T01:23:45.790Z,29.73
2022-08-18T01:26:13.099Z,29.07
2022-08-18T01:28:43.020Z,29.13
2022-08-18T01:31:11.335Z,28.70
2022-08-18T01:33:42.311Z,30.80
2022-08-18T01:36:16.528Z,30.97
2022-08-18T01:38:47.041Z,29.70
2022-08-18T01:41:27.124Z,29.10
2022-08-18T01:43:58.659Z,29.90
2022-08-18T01:46:27.970Z,29.37
2022-08-18T01:48:55.974Z,32.07
2022-08-18T01:51:38.176Z,31.33
2022-08-18T01:54:12.176Z,31.37
2022-08-18T01:56:40.661Z,32.03
2022-08-18T01:59:10.322Z,29.73
2022-08-18T02:01:48.115Z,31.27
2022-08-18T02:04:34.461Z,30.63
2022-08-18T02:07:05.932Z,31.27
2022-08-18T02:09:36.490Z,30.20
2022-08-18T02:12:05.767Z,31.33
2022-08-18T02:14:33.565Z,38.10
2022-08-18T02:17:03.090Z,37.90
2022-08-18T02:19:34.672Z,39.03
2022-08-18T02:22:02.854Z,41.03
2022-08-18T02:24:30.923Z,43.80
2022-08-18T02:27:00.287Z,46.80
2022-08-18T02:29:28.070Z,49.30
2022-08-18T02:31:55.791Z,51.40
2022-08-18T02:34:23.819Z,47.37
2022-08-18T02:36:51.490Z,49.33
2022-08-18T02:39:19.125Z,50.10
2022-08-18T02:41:46.890Z,50.93
2022-08-18T02:44:15.986Z,49.13
2022-08-18T02:46:43.627Z,52.20
2022-08-18T02:49:12.127Z,50.03
2022-08-18T02:51:40.048Z,50.87
2022-08-18T02:54:09.328Z,51.60
2022-08-18T02:56:41.080Z,53.03
2022-08-18T02:59:12.189Z,56.70
2022-08-18T03:01:44.173Z,54.30
2022-08-18T03:04:14.294Z,57.60
2022-08-18T03:06:42.546Z,56.93
2022-08-18T03:09:12.635Z,57.53
2022-08-18T03:11:40.770Z,53.50
2022-08-18T03:14:11.726Z,54.87
2022-08-18T03:16:52.768Z,50.67
2022-08-18T03:19:22.739Z,46.37
2022-08-18T03:21:50.702Z,45.17
2022-08-18T03:24:22.853Z,45.53
2022-08-18T03:26:51.782Z,50.47
2022-08-18T03:29:19.922Z,52.83
2022-08-18T03:31:49.725Z,50.10
2022-08-18T03:34:19.919Z,59.23
2022-08-18T03:36:48.430Z,56.27
2022-08-18T03:39:16.299Z,59.90
2022-08-18T03:41:59.836Z,57.90
2022-08-18T03:44:31.063Z,54.07
2022-08-18T03:47:01.028Z,56.60
2022-08-18T03:49:28.696Z,50.73
2022-08-18T03:51:57.066Z,50.40
2022-08-18T03:54:24.778Z,43.43
2022-08-18T03:56:54.287Z,38.47
2022-08-18T03:59:24.759Z,40.63
2022-08-18T04:01:54.929Z,41.03
2022-08-18T04:04:26.747Z,40.40
2022-08-18T04:06:58.467Z,34.97
2022-08-18T04:09:27.831Z,34.03
2022-08-18T04:11:55.931Z,35.63
2022-08-18T04:14:25.378Z,33.73
2022-08-18T04:16:53.263Z,38.43
2022-08-18T04:19:26.559Z,38.70
2022-08-18T04:21:57.546Z,32.80
2022-08-18T04:24:29.758Z,36.07
2022-08-18T04:27:01.514Z,34.07
2022-08-18T04:29:29.594Z,32.87
2022-08-18T04:31:57.784Z,35.13
2022-08-18T04:34:25.485Z,34.80
2022-08-18T04:36:54.555Z,35.53
2022-08-18T04:39:24.402Z,35.17
2022-08-18T04:41:52.563Z,34.13
2022-08-18T04:44:21.693Z,35.07
2022-08-18T04:46:52.169Z,34.53
2022-08-18T04:49:21.642Z,35.10
2022-08-18T04:52:27.016Z,35.93
2022-08-18T04:55:01.472Z,34.90
2022-08-18T04:57:34.021Z,34.37
2022-08-18T05:00:03.265Z,36.53
2022-08-18T05:02:32.928Z,34.07
2022-08-18T05:05:01.275Z,34.43
2022-08-18T05:07:29.187Z,24.37
2022-08-18T05:09:56.836Z,32.03
2022-08-18T05:12:26.820Z,32.37
2022-08-18T05:14:56.895Z,31.40
2022-08-18T05:17:30.598Z,25.40
2022-08-18T05:20:00.227Z,31.40
2022-08-18T05:22:31.910Z,32.53
2022-08-18T05:25:00.021Z,24.73
2022-08-18T05:27:34.009Z,32.90
2022-08-18T05:30:02.503Z,28.27
2022-08-18T05:32:46.575Z,36.37
2022-08-18T05:35:20.097Z,31.00
2022-08-18T05:37:58.298Z,32.67
2022-08-18T05:40:26.850Z,32.00
2022-08-18T05:42:57.323Z,34.53
2022-08-18T05:45:25.483Z,36.00
2022-08-18T05:47:59.855Z,26.40
2022-08-18T05:50:29.096Z,36.20
2022-08-18T05:52:59.739Z,26.73
2022-08-18T05:55:48.735Z,30.00
2022-08-18T05:58:20.897Z,26.47
2022-08-18T06:00:57.516Z,34.00
2022-08-18T06:03:30.530Z,32.63
2022-08-18T06:06:15.562Z,34.20
2022-08-18T06:08:47.170Z,34.67
2022-08-18T06:11:22.054Z,35.60
2022-08-18T06:13:57.802Z,36.53
2022-08-18T06:16:36.956Z,35.53
2022-08-18T06:19:09.708Z,35.57
2022-08-18T06:21:44.981Z,34.70
2022-08-18T06:24:19.058Z,36.40
2022-08-18T06:26:52.035Z,37.53
2022-08-18T06:29:34.433Z,36.53
2022-08-18T06:32:11.492Z,37.13
2022-08-18T06:34:45.083Z,35.63
2022-08-18T06:37:18.798Z,36.63
2022-08-18T06:39:48.854Z,38.67
2022-08-18T06:42:18.745Z,37.73
2022-08-18T06:44:50.477Z,36.67
2022-08-18T06:47:22.943Z,37.70
2022-08-18T06:49:54.814Z,35.70
2022-08-18T06:52:26.635Z,36.13
2022-08-18T06:54:55.950Z,35.90
2022-08-18T06:57:27.930Z,38.83
2022-08-18T07:00:00.056Z,37.97
2022-08-18T07:02:44.566Z,37.40
2022-08-18T07:05:20.467Z,39.30
2022-08-18T07:08:05.395Z,39.37
2022-08-18T07:10:35.703Z,38.50
2022-08-18T07:13:17.373Z,40.67
2022-08-18T07:15:48.272Z,38.33
2022-08-18T07:18:24.270Z,38.27
2022-08-18T07:20:54.895Z,39.47
2022-08-18T07:23:27.446Z,38.47
2022-08-18T07:26:03.071Z,38.83
2022-08-18T07:28:33.283Z,37.30
2022-08-18T07:31:37.710Z,38.77
2022-08-18T07:34:10.031Z,36.53
2022-08-18T07:36:43.920Z,38.57
2022-08-18T07:39:16.245Z,38.07
2022-08-18T07:41:48.617Z,37.57
2022-08-18T07:44:22.803Z,37.53
2022-08-18T07:46:59.577Z,36.03
2022-08-18T07:49:35.386Z,36.27
2022-08-18T07:52:06.980Z,36.43
2022-08-18T07:55:03.931Z,36.63
2022-08-18T07:57:42.375Z,37.97
2022-08-18T08:00:41.519Z,36.77
2022-08-18T08:03:26.110Z,38.63
2022-08-18T08:05:57.709Z,40.50
2022-08-18T08:08:31.302Z,37.40
2022-08-18T08:11:22.197Z,35.97
2022-08-18T08:13:58.591Z,35.23
2022-08-18T08:16:35.219Z,31.80
2022-08-18T08:19:12.902Z,31.20
2022-08-18T08:21:52.910Z,30.00
2022-08-18T08:24:27.327Z,29.23
2022-08-18T08:26:58.770Z,30.10
2022-08-18T08:29:35.046Z,27.80
2022-08-18T08:32:05.616Z,27.10
2022-08-18T08:34:40.399Z,25.20
2022-08-18T08:37:11.395Z,26.80
2022-08-18T08:39:42.615Z,26.03
2022-08-18T08:42:31.904Z,25.57
2022-08-18T08:45:06.144Z,27.70
2022-08-18T08:47:38.285Z,25.37
2022-08-18T08:50:10.701Z,26.50
2022-08-18T08:52:42.454Z,25.53
2022-08-18T08:55:12.835Z,25.13
2022-08-18T08:57:46.817Z,25.10
2022-08-18T09:00:15.382Z,26.07
2022-08-18T09:03:10.084Z,24.57
2022-08-18T09:05:42.870Z,24.80
2022-08-18T09:08:30.352Z,24.47
2022-08-18T09:11:20.704Z,24.00
2022-08-18T09:14:11.242Z,25.23
2022-08-18T09:16:50.870Z,25.97
2022-08-18T09:19:32.742Z,30.57
2022-08-18T09:22:05.850Z,30.47
2022-08-18T09:24:42.349Z,31.60
2022-08-18T09:27:16.642Z,31.27
2022-08-18T09:29:51.141Z,30.37
2022-08-18T09:32:40.594Z,30.40
2022-08-18T09:35:20.081Z,27.97
2022-08-18T09:38:11.431Z,27.77
2022-08-18T09:41:05.725Z,26.67
2022-08-18T09:43:39.211Z,26.73
2022-08-18T09:46:08.658Z,28.33
2022-08-18T09:48:43.135Z,25.97
2022-08-18T09:51:39.840Z,26.10
2022-08-18T09:54:20.924Z,24.43
2022-08-18T09:57:19.436Z,24.57
2022-08-18T09:59:53.590Z,22.77
2022-08-18T10:03:10.233Z,22.03
2022-08-18T10:05:38.648Z,21.73
2022-08-18T10:08:30.431Z,19.47
2022-08-18T10:14:07.135Z,21.40
2022-08-18T10:17:13.282Z,20.97
2022-08-18T10:19:40.119Z,21.50
2022-08-18T10:22:11.191Z,19.90
2022-08-18T10:24:43.622Z,19.20
2022-08-18T10:27:35.584Z,18.20
2022-08-18T10:30:05.961Z,18.97
2022-08-18T10:32:45.000Z,19.90
2022-08-18T10:35:55.797Z,20.03
2022-08-18T10:41:35.024Z,18.00
2022-08-18T10:44:27.432Z,19.23
2022-08-18T10:46:54.211Z,18.00
2022-08-18T10:49:31.848Z,17.97
2022-08-18T10:52:18.064Z,17.80
2022-08-18T10:55:16.611Z,17.83
2022-08-18T10:58:04.323Z,14.30
2022-08-18T11:00:44.488Z,11.77
2022-08-18T11:03:50.275Z,11.43
2022-08-18T11:06:17.900Z,11.93
2022-08-18T11:08:55.218Z,11.43
2022-08-18T11:11:40.838Z,12.33
2022-08-18T11:14:17.201Z,11.30
2022-08-18T11:16:53.930Z,11.67
2022-08-18T11:19:23.238Z,12.57
2022-08-18T11:21:52.113Z,11.83
2022-08-18T11:24:23.053Z,12.67
2022-08-18T11:26:53.859Z,11.80
2022-08-18T11:29:32.158Z,11.87
2022-08-18T11:32:11.040Z,11.83
2022-08-18T11:43:26.470Z,12.37
2022-08-18T11:45:59.349Z,13.37
2022-08-18T11:48:53.446Z,13.80
2022-08-18T11:51:24.700Z,13.97
2022-08-18T11:53:58.713Z,14.57
2022-08-18T11:56:31.648Z,14.70
2022-08-18T11:59:05.751Z,15.80
2022-08-18T12:01:42.158Z,14.33
2022-08-18T12:04:22.197Z,15.77
2022-08-18T12:07:00.541Z,14.73
2022-08-18T12:12:31.354Z,16.70
2022-08-18T12:15:11.841Z,14.07
2022-08-18T12:17:52.761Z,13.80
2022-08-18T12:20:22.960Z,12.90
2022-08-18T12:22:51.471Z,14.20
2022-08-18T12:25:25.305Z,13.60
2022-08-18T12:27:53.672Z,15.53
2022-08-18T12:30:21.335Z,15.07
2022-08-18T12:32:55.508Z,14.77
2022-08-18T12:35:26.191Z,15.53
2022-08-18T12:37:59.584Z,14.93
2022-08-18T12:40:31.586Z,14.40
2022-08-18T12:42:59.459Z,14.73
2022-08-18T12:45:30.868Z,15.40
2022-08-18T12:47:59.550Z,15.07
2022-08-18T12:50:31.160Z,16.00
2022-08-18T12:53:01.939Z,17.47
2022-08-18T12:55:33.141Z,14.97
2022-08-18T12:58:03.907Z,14.77
2022-08-18T13:00:31.588Z,17.30
2022-08-18T13:02:59.350Z,15.73
2022-08-18T13:05:30.063Z,15.53
2022-08-18T13:07:59.681Z,15.40
2022-08-18T13:10:46.013Z,14.03
2022-08-18T13:13:16.592Z,14.80
2022-08-18T13:15:57.761Z,13.90
2022-08-18T13:18:29.125Z,14.77
2022-08-18T13:20:58.872Z,15.47
2022-08-18T13:23:27.626Z,14.10
2022-08-18T13:25:59.532Z,13.47
2022-08-18T13:28:30.652Z,12.57
2022-08-18T13:31:01.714Z,13.97
2022-08-18T13:33:34.790Z,12.87
2022-08-18T13:36:19.172Z,13.80
2022-08-18T13:38:46.937Z,13.60
2022-08-18T13:41:15.607Z,14.20
2022-08-18T13:43:47.966Z,14.67
2022-08-18T13:46:18.423Z,14.63
2022-08-18T13:48:47.383Z,14.73
2022-08-18T13:51:21.852Z,15.00
2022-08-18T13:53:58.916Z,15.00
2022-08-18T13:56:34.575Z,15.60
2022-08-18T13:59:04.921Z,16.43
2022-08-18T14:01:44.690Z,16.93
2022-08-18T14:04:20.037Z,17.40
2022-08-18T14:06:51.436Z,16.63
2022-08-18T14:09:27.825Z,17.53
2022-08-18T14:12:06.667Z,17.33
2022-08-18T14:14:34.651Z,16.77
2022-08-18T14:17:04.667Z,16.83
2022-08-18T14:19:52.961Z,17.60
2022-08-18T14:22:39.319Z,17.40
2022-08-18T14:25:25.900Z,17.70
2022-08-18T14:27:56.142Z,15.50
2022-08-18T14:30:25.270Z,16.50
2022-08-18T14:32:53.862Z,17.70
2022-08-18T14:35:33.765Z,15.63
2022-08-18T14:38:12.615Z,12.57
2022-08-18T14:40:43.153Z,13.73
2022-08-18T14:43:11.835Z,13.40
2022-08-18T14:45:45.706Z,15.23
2022-08-18T14:48:13.458Z,16.33
2022-08-18T14:50:48.926Z,15.70
2022-08-18T14:53:20.875Z,14.27
2022-08-18T14:55:52.077Z,14.33
2022-08-18T14:58:20.121Z,13.33
2022-08-18T15:00:49.712Z,13.27
2022-08-18T15:03:20.920Z,13.60
2022-08-18T15:05:56.134Z,12.87
2022-08-18T15:08:25.230Z,12.70
2022-08-18T15:10:54.934Z,11.13
2022-08-18T15:13:25.007Z,10.47
2022-08-18T15:15:55.834Z,9.73
2022-08-18T15:18:29.845Z,10.43
2022-08-18T15:21:34.780Z,11.53
2022-08-18T15:24:25.428Z,11.03
2022-08-18T15:26:56.747Z,10.97
2022-08-18T15:29:28.066Z,11.53
2022-08-18T15:32:02.271Z,11.03
2022-08-18T15:34:46.079Z,10.47
2022-08-18T15:37:14.320Z,10.97
2022-08-18T15:39:45.512Z,11.17
2022-08-18T15:42:13.864Z,11.23
2022-08-18T15:44:44.718Z,12.17
2022-08-18T15:47:12.511Z,11.97
2022-08-18T15:49:42.061Z,11.10
2022-08-18T15:52:13.188Z,11.67
2022-08-18T15:54:42.356Z,11.07
2022-08-18T15:57:38.853Z,10.87
2022-08-18T16:00:02.498Z,9.17
2022-08-18T16:02:31.201Z,9.70
2022-08-18T16:05:10.280Z,9.40
2022-08-18T16:07:53.719Z,8.30
2022-08-18T16:10:22.978Z,9.37
2022-08-18T16:12:52.546Z,9.57
2022-08-18T16:15:25.203Z,8.97
2022-08-18T16:17:55.737Z,8.77
2022-08-18T16:20:24.532Z,9.50
2022-08-18T16:22:53.021Z,8.73
2022-08-18T16:25:21.899Z,9.50
2022-08-18T16:27:49.588Z,9.13
2022-08-18T16:30:20.873Z,9.87
2022-08-18T16:32:48.734Z,8.67
2022-08-18T16:35:18.422Z,7.17
2022-08-18T16:37:46.674Z,7.53
2022-08-18T16:40:14.747Z,6.80
2022-08-18T16:42:42.384Z,6.17
2022-08-18T16:45:13.246Z,6.53
2022-08-18T16:47:42.547Z,6.00
2022-08-18T16:50:11.650Z,6.23
2022-08-18T16:52:40.205Z,6.37
2022-08-18T16:55:10.215Z,6.10
2022-08-18T16:57:57.782Z,5.70
2022-08-18T17:00:43.780Z,6.07
2022-08-18T17:03:30.745Z,6.63
2022-08-18T17:06:02.827Z,6.50
2022-08-18T17:08:34.358Z,6.30
2022-08-18T17:11:02.576Z,7.00
2022-08-18T17:13:31.357Z,6.37
2022-08-18T17:15:59.133Z,6.67
2022-08-18T17:18:29.169Z,5.70
2022-08-18T17:20:57.694Z,6.17
2022-08-18T17:23:27.241Z,6.00
2022-08-18T17:25:55.814Z,5.93
2022-08-18T17:28:26.410Z,5.60
2022-08-18T17:30:54.642Z,5.93
2022-08-18T17:33:25.129Z,5.70
2022-08-18T17:35:54.879Z,5.30
2022-08-18T17:38:27.992Z,5.30
2022-08-18T17:40:57.113Z,5.37
2022-08-18T17:43:27.401Z,5.47
2022-08-18T17:45:57.090Z,6.30
2022-08-18T17:48:30.002Z,5.40
2022-08-18T17:51:23.116Z,5.73
2022-08-18T17:53:50.880Z,5.40
2022-08-18T17:56:21.645Z,5.37
2022-08-18T17:58:56.109Z,4.90
2022-08-18T18:01:25.639Z,4.83
2022-08-18T18:03:54.467Z,5.60
2022-08-18T18:06:31.801Z,5.30
2022-08-18T18:09:02.046Z,5.20
2022-08-18T18:11:33.270Z,5.90
2022-08-18T18:14:02.105Z,5.90
2022-08-18T18:16:35.078Z,6.03
2022-08-18T18:19:06.000Z,5.57
2022-08-18T18:22:00.418Z,5.50
2022-08-18T18:24:32.537Z,5.80
2022-08-18T18:27:00.742Z,5.70
2022-08-18T18:29:35.625Z,5.50
2022-08-18T18:32:07.248Z,5.43
2022-08-18T18:34:39.158Z,5.43
2022-08-18T18:37:26.158Z,5.47
2022-08-18T18:39:58.914Z,5.63
2022-08-18T18:42:29.562Z,5.80
2022-08-18T18:44:59.199Z,6.00
2022-08-18T18:47:51.457Z,5.33
2022-08-18T18:50:26.184Z,5.60
2022-08-18T18:53:05.980Z,5.77
2022-08-18T18:55:36.906Z,5.13
2022-08-18T18:58:14.907Z,5.73
2022-08-18T19:00:54.128Z,5.83
2022-08-18T19:03:27.465Z,5.93
2022-08-18T19:06:09.037Z,6.60
2022-08-18T19:08:43.539Z,6.10
2022-08-18T19:11:17.766Z,5.70
2022-08-18T19:13:54.224Z,5.83
2022-08-18T19:16:24.744Z,6.10
2022-08-18T19:19:36.300Z,5.53
2022-08-18T19:22:04.268Z,5.83
2022-08-18T19:24:38.463Z,5.83
2022-08-18T19:27:07.249Z,5.80
2022-08-18T19:29:38.041Z,5.80
2022-08-18T19:32:14.548Z,6.13
2022-08-18T19:34:51.136Z,5.97
2022-08-18T19:37:31.034Z,5.97
2022-08-18T19:40:09.575Z,6.27
2022-08-18T19:42:41.246Z,6.37
2022-08-18T19:45:16.897Z,5.80
2022-08-18T19:47:50.088Z,6.30
2022-08-18T19:50:24.360Z,6.40
2022-08-18T19:53:07.388Z,6.00
2022-08-18T19:55:47.381Z,6.47
2022-08-18T19:58:26.984Z,5.97
2022-08-18T20:00:57.497Z,6.60
2022-08-18T20:03:47.035Z,6.40
2022-08-18T20:06:34.354Z,6.53
2022-08-18T20:09:35.626Z,6.50
2022-08-18T20:12:14.013Z,6.53
2022-08-18T20:14:42.943Z,6.63
2022-08-18T20:17:17.663Z,7.13
2022-08-18T20:19:49.686Z,6.57
2022-08-18T20:22:35.646Z,7.30
2022-08-18T20:25:14.126Z,7.53
2022-08-18T20:27:44.532Z,7.17
2022-08-18T20:30:31.142Z,7.17
2022-08-18T20:33:21.157Z,7.07
2022-08-18T20:35:59.386Z,6.43
2022-08-18T20:38:35.069Z,6.77
2022-08-18T20:41:31.620Z,7.07
2022-08-18T20:44:12.302Z,6.53
2022-08-18T20:46:45.066Z,6.93
2022-08-18T20:49:21.640Z,6.97
2022-08-18T20:51:57.689Z,6.77
2022-08-18T20:54:34.722Z,6.77
2022-08-18T20:57:04.093Z,7.20
2022-08-18T20:59:38.841Z,7.53
2022-08-18T21:02:24.693Z,6.97
2022-08-18T21:04:54.815Z,7.13
2022-08-18T21:07:36.624Z,6.90
2022-08-18T21:10:12.671Z,6.77
2022-08-18T21:12:52.529Z,6.67
2022-08-18T21:15:24.448Z,6.80
2022-08-18T21:17:59.334Z,6.57
2022-08-18T21:20:28.304Z,7.27
2022-08-18T21:23:04.155Z,6.57
2022-08-18T21:25:33.519Z,7.07
2022-08-18T21:28:02.208Z,7.20
2022-08-18T21:30:32.289Z,6.80
2022-08-18T21:33:00.063Z,7.60
2022-08-18T21:35:29.938Z,7.13
2022-08-18T21:37:59.978Z,7.10
2022-08-18T21:40:47.030Z,7.90
2022-08-18T21:43:33.678Z,7.47
2022-08-18T21:46:03.472Z,7.90
2022-08-18T21:48:33.487Z,10.50
2022-08-18T21:51:02.097Z,11.27
2022-08-18T21:53:31.985Z,10.50
2022-08-18T21:56:01.298Z,12.33
2022-08-18T21:58:33.587Z,12.37
2022-08-18T22:01:23.153Z,11.97
2022-08-18T22:03:56.262Z,11.50
2022-08-18T22:06:30.774Z,11.43
2022-08-18T22:09:20.968Z,10.93
2022-08-18T22:12:02.957Z,11.53
2022-08-18T22:14:36.025Z,11.33
2022-08-18T22:17:28.934Z,11.30
2022-08-18T22:19:57.495Z,11.13
2022-08-18T22:22:42.690Z,10.70
2022-08-18T22:25:12.958Z,11.00
2022-08-18T22:27:41.063Z,11.30
2022-08-18T22:30:09.278Z,10.03
2022-08-18T22:32:39.898Z,9.93
2022-08-18T22:35:08.960Z,9.43
2022-08-18T22:37:40.931Z,9.07
2022-08-18T22:40:11.529Z,8.97
2022-08-18T22:42:39.739Z,8.87
2022-08-18T22:45:13.343Z,9.20
2022-08-18T22:47:44.973Z,8.70
2022-08-18T22:50:13.864Z,8.33
2022-08-18T22:52:43.895Z,8.83
2022-08-18T22:55:14.057Z,8.77
2022-08-18T22:57:43.026Z,8.97
2022-08-18T23:00:15.382Z,8.70
2022-08-18T23:02:44.549Z,9.07
2022-08-18T23:05:12.531Z,8.47
2022-08-18T23:07:40.221Z,8.97
2022-08-18T23:10:14.239Z,8.20
2022-08-18T23:12:42.576Z,8.80
2022-08-18T23:15:11.879Z,9.53
2022-08-18T23:17:40.612Z,8.60
2022-08-18T23:20:12.089Z,9.90
2022-08-18T23:22:45.433Z,9.13
2022-08-18T23:25:13.647Z,9.00
2022-08-18T23:27:42.875Z,8.70
2022-08-18T23:30:11.665Z,10.50
2022-08-18T23:32:39.427Z,9.10
2022-08-18T23:35:07.543Z,9.90
2022-08-18T23:37:36.562Z,9.20
2022-08-18T23:40:05.271Z,9.53
2022-08-18T23:42:32.986Z,9.03
2022-08-18T23:45:03.557Z,10.07
2022-08-18T23:47:31.261Z,9.67
2022-08-18T23:49:58.942Z,9.83
2022-08-18T23:52:26.682Z,10.03
2022-08-18T23:54:56.526Z,9.03
2022-08-18T23:57:24.117Z,9.07
2022-08-18T23:59:51.719Z,9.03
